Time;durP1;ratioP1;P1;durP2;ratioP2;P2;SDS_P1;SDS_P2;PMS_P1;PMS_P2;Temp;Humidity;BMP_temperature;BMP_pressure;BME280_temperature;BME280_humidity;BME280_pressure;Samples;Min_cycle;Max_cycle;Signal;HPM_P1;HPM_P2
2023/11/30 00:02:09;;;;;;;14.53;7.47;;;1.40;99.90;;;;;;5072874;28;20028;-80
2023/11/30 00:04:34;;;;;;;16.30;7.30;;;1.20;99.90;;;;;;5054983;28;20476;-79
2023/11/30 00:07:01;;;;;;;11.83;6.07;;;1.40;99.90;;;;;;5054928;28;20098;-79
2023/11/30 00:09:26;;;;;;;13.47;6.97;;;1.40;99.90;;;;;;5054734;28;20024;-79
2023/11/30 00:11:52;;;;;;;12.73;6.57;;;1.30;99.90;;;;;;5072358;28;20036;-79
2023/11/30 00:14:18;;;;;;;12.80;6.77;;;1.30;99.90;;;;;;5075465;28;20034;-79
2023/11/30 00:16:43;;;;;;;12.40;6.77;;;1.30;99.90;;;;;;5075970;28;20035;-79
2023/11/30 00:19:09;;;;;;;16.40;6.57;;;1.30;99.90;;;;;;5075981;28;20107;-79
2023/11/30 00:21:35;;;;;;;15.20;6.90;;;1.30;99.90;;;;;;5058052;28;20028;-80
2023/11/30 00:24:00;;;;;;;12.43;6.43;;;1.30;99.90;;;;;;5075751;28;20025;-81
2023/11/30 00:26:26;;;;;;;13.20;7.13;;;1.20;99.90;;;;;;5075651;28;20021;-81
2023/11/30 00:28:51;;;;;;;12.70;6.77;;;1.20;99.90;;;;;;5075708;28;20055;-79
2023/11/30 00:31:17;;;;;;;13.50;7.27;;;1.20;99.90;;;;;;5075627;28;20399;-80
2023/11/30 00:33:42;;;;;;;12.97;6.70;;;1.30;99.90;;;;;;5057467;28;20025;-79
2023/11/30 00:36:08;;;;;;;13.13;6.77;;;1.10;99.90;;;;;;5057745;28;20493;-79
2023/11/30 00:38:34;;;;;;;12.60;6.23;;;1.10;99.90;;;;;;5075279;28;20020;-80
2023/11/30 00:41:00;;;;;;;11.97;6.90;;;1.10;99.90;;;;;;5057241;28;20108;-79
2023/11/30 00:43:25;;;;;;;13.30;6.83;;;1.10;99.90;;;;;;5075506;28;20017;-79
2023/11/30 00:45:51;;;;;;;11.33;6.20;;;1.00;99.90;;;;;;5075535;28;20025;-79
2023/11/30 00:48:16;;;;;;;12.57;6.07;;;1.00;99.90;;;;;;5075261;28;20033;-79
2023/11/30 00:50:42;;;;;;;12.63;6.63;;;1.00;99.90;;;;;;5057375;28;20089;-79
2023/11/30 00:53:08;;;;;;;14.30;7.23;;;1.00;99.90;;;;;;5075633;28;20036;-79
2023/11/30 00:55:33;;;;;;;13.30;6.43;;;1.00;99.90;;;;;;5075677;28;20029;-80
2023/11/30 00:57:59;;;;;;;12.40;6.47;;;1.00;99.90;;;;;;5058320;28;20024;-80
2023/11/30 01:00:24;;;;;;;14.43;6.93;;;1.00;99.90;;;;;;5075514;28;20032;-80
2023/11/30 01:02:50;;;;;;;17.83;7.37;;;0.90;99.90;;;;;;5057487;28;20021;-79
2023/11/30 01:05:16;;;;;;;12.93;7.10;;;0.90;99.90;;;;;;5075299;28;20094;-79
2023/11/30 01:07:41;;;;;;;15.73;7.17;;;0.90;99.90;;;;;;5057540;28;20426;-79
2023/11/30 01:10:07;;;;;;;18.47;7.63;;;0.90;99.90;;;;;;5076053;28;20083;-79
2023/11/30 01:12:33;;;;;;;14.57;7.53;;;0.90;99.90;;;;;;5058417;28;20025;-79
2023/11/30 01:14:59;;;;;;;15.43;7.57;;;0.90;99.90;;;;;;5075327;28;20024;-79
2023/11/30 01:17:25;;;;;;;28.63;6.93;;;0.90;99.90;;;;;;5074899;28;20043;-79
2023/11/30 01:19:50;;;;;;;33.43;7.67;;;0.90;99.90;;;;;;5074923;28;20028;-79
2023/11/30 01:22:16;;;;;;;29.93;8.13;;;0.90;99.90;;;;;;5056894;28;20470;-79
2023/11/30 01:24:42;;;;;;;25.43;7.50;;;0.90;99.90;;;;;;5056754;28;20119;-79
2023/11/30 01:27:07;;;;;;;28.30;7.00;;;0.90;99.90;;;;;;5074371;28;20384;-79
2023/11/30 01:29:33;;;;;;;20.27;6.87;;;0.90;99.90;;;;;;5074553;28;20075;-81
2023/11/30 01:31:59;;;;;;;28.40;7.20;;;0.90;99.90;;;;;;5074467;28;20078;-81
2023/11/30 01:34:24;;;;;;;19.67;6.73;;;0.90;99.90;;;;;;5056586;28;20017;-81
2023/11/30 01:36:50;;;;;;;26.70;6.27;;;0.90;99.90;;;;;;5056805;28;20111;-80
2023/11/30 01:39:16;;;;;;;21.80;6.90;;;0.90;99.90;;;;;;5074366;28;20016;-80
2023/11/30 01:41:42;;;;;;;13.00;6.50;;;0.90;99.90;;;;;;5056210;28;20082;-79
2023/11/30 01:44:09;;;;;;;12.67;7.30;;;0.90;99.90;;;;;;5074204;28;20028;-79
2023/11/30 01:46:36;;;;;;;14.27;7.63;;;1.00;99.90;;;;;;5074108;28;20029;-81
2023/11/30 01:49:03;;;;;;;13.67;7.33;;;1.00;99.90;;;;;;5074138;28;20049;-81
2023/11/30 01:51:31;;;;;;;14.20;8.10;;;1.00;99.90;;;;;;5073971;28;20027;-81
2023/11/30 01:53:59;;;;;;;13.83;7.77;;;1.00;99.90;;;;;;5056045;28;20028;-81
2023/11/30 01:56:25;;;;;;;13.07;6.87;;;1.00;99.90;;;;;;5074150;28;20025;-81
2023/11/30 01:58:52;;;;;;;15.93;8.00;;;1.00;99.90;;;;;;5055783;28;20052;-81
2023/11/30 02:01:18;;;;;;;14.77;7.77;;;0.90;99.90;;;;;;5074013;28;20024;-80
2023/11/30 02:03:44;;;;;;;14.00;8.40;;;1.00;99.90;;;;;;5056053;28;20021;-81
2023/11/30 02:06:10;;;;;;;18.67;8.27;;;1.00;99.90;;;;;;5073794;28;20032;-80
2023/11/30 02:08:35;;;;;;;14.10;7.47;;;1.00;99.90;;;;;;5073656;28;20024;-80
2023/11/30 02:11:01;;;;;;;14.83;8.27;;;1.00;99.90;;;;;;5073539;28;20020;-81
2023/11/30 02:13:27;;;;;;;13.80;7.57;;;1.00;99.90;;;;;;5073673;28;20033;-81
2023/11/30 02:15:52;;;;;;;15.37;7.83;;;1.00;99.90;;;;;;5055904;28;20021;-81
2023/11/30 02:18:18;;;;;;;15.10;7.63;;;1.10;99.90;;;;;;5073904;28;20115;-81
2023/11/30 02:20:44;;;;;;;20.70;8.20;;;1.10;99.90;;;;;;5073967;28;20119;-81
2023/11/30 02:23:09;;;;;;;22.17;8.17;;;1.10;99.90;;;;;;5073577;28;20543;-81
2023/11/30 02:25:35;;;;;;;13.73;7.07;;;1.20;99.90;;;;;;5073606;28;20113;-81
2023/11/30 02:28:00;;;;;;;17.93;6.63;;;1.10;99.90;;;;;;5055567;28;20036;-81
2023/11/30 02:30:26;;;;;;;16.10;7.10;;;1.10;99.90;;;;;;5055585;28;20054;-81
2023/11/30 02:32:52;;;;;;;17.27;7.27;;;1.10;99.90;;;;;;5073247;28;20032;-81
2023/11/30 02:35:17;;;;;;;14.97;7.07;;;1.10;99.90;;;;;;5073195;28;20024;-81
2023/11/30 02:51:50;;;;;;;20.20;7.90;;;1.40;99.90;;;;;;522653;26;20425;-80
2023/11/30 02:54:16;;;;;;;15.80;8.13;;;1.40;99.90;;;;;;5112021;28;20089;-80
2023/11/30 02:56:41;;;;;;;16.50;8.17;;;1.40;99.90;;;;;;5095926;28;20031;-80
2023/11/30 02:59:07;;;;;;;13.23;7.57;;;1.50;99.90;;;;;;5114325;28;20027;-81
2023/11/30 03:01:32;;;;;;;16.37;8.00;;;1.50;99.90;;;;;;5114009;28;20028;-80
2023/11/30 03:03:58;;;;;;;12.60;7.10;;;1.60;99.90;;;;;;5113985;28;20023;-80
2023/11/30 03:06:23;;;;;;;15.10;8.67;;;1.60;99.90;;;;;;5095576;28;20039;-80
2023/11/30 03:08:49;;;;;;;13.90;7.70;;;1.60;99.90;;;;;;5113967;28;20024;-80
2023/11/30 03:11:15;;;;;;;14.57;8.03;;;1.60;99.90;;;;;;5114031;28;20153;-80
2023/11/30 03:13:40;;;;;;;14.50;8.20;;;1.70;99.90;;;;;;5113507;28;20076;-80
2023/11/30 03:16:06;;;;;;;18.13;9.30;;;1.70;99.90;;;;;;5113870;28;20526;-81
2023/11/30 03:18:32;;;;;;;16.87;8.83;;;1.70;99.90;;;;;;5113755;28;20450;-80
2023/11/30 03:20:58;;;;;;;15.43;7.43;;;1.70;99.90;;;;;;5113605;28;20024;-81
2023/11/30 03:23:23;;;;;;;15.13;8.53;;;1.70;99.90;;;;;;5095252;28;20023;-80
2023/11/30 03:25:49;;;;;;;16.13;8.57;;;1.70;99.90;;;;;;5114561;28;20024;-81
2023/11/30 03:28:14;;;;;;;16.07;8.80;;;1.70;99.90;;;;;;5113635;28;20031;-81
2023/11/30 03:30:40;;;;;;;15.97;9.20;;;1.70;99.90;;;;;;5113919;28;20537;-80
2023/11/30 03:33:06;;;;;;;16.87;8.17;;;1.70;99.90;;;;;;5095221;28;20044;-80
2023/11/30 03:35:31;;;;;;;18.20;8.20;;;1.70;99.90;;;;;;5113297;28;20080;-80
2023/11/30 03:37:57;;;;;;;16.87;8.67;;;1.70;99.90;;;;;;5113232;28;20020;-80
2023/11/30 03:40:22;;;;;;;15.37;8.03;;;1.70;99.90;;;;;;5113580;28;20077;-81
2023/11/30 03:42:48;;;;;;;14.70;7.83;;;1.70;99.90;;;;;;5113348;28;20566;-81
2023/11/30 03:45:14;;;;;;;16.57;7.63;;;1.70;99.90;;;;;;5113354;28;20030;-81
2023/11/30 03:47:39;;;;;;;15.83;8.30;;;1.60;99.90;;;;;;5095339;28;20022;-80
2023/11/30 03:50:05;;;;;;;14.97;8.63;;;1.60;99.90;;;;;;5117140;28;20020;-80
2023/11/30 03:52:31;;;;;;;17.97;8.43;;;1.60;99.90;;;;;;5117003;28;20048;-81
2023/11/30 03:54:56;;;;;;;14.40;7.70;;;1.60;99.90;;;;;;5117296;28;20024;-81
2023/11/30 03:57:22;;;;;;;15.27;8.43;;;1.60;99.90;;;;;;5117566;28;20059;-80
2023/11/30 03:59:48;;;;;;;13.53;7.37;;;1.50;99.90;;;;;;5116896;28;20027;-81
2023/11/30 04:02:13;;;;;;;14.50;8.00;;;1.50;99.90;;;;;;5099083;28;20023;-80
2023/11/30 04:04:39;;;;;;;15.33;8.70;;;1.50;99.90;;;;;;5098726;28;20024;-80
2023/11/30 04:07:05;;;;;;;16.33;8.73;;;1.50;99.90;;;;;;5117293;28;20019;-80
2023/11/30 04:09:30;;;;;;;14.77;8.57;;;1.50;99.90;;;;;;5116867;28;20058;-81
2023/11/30 04:11:56;;;;;;;18.13;8.80;;;1.50;99.90;;;;;;5098838;28;20028;-80
2023/11/30 04:14:21;;;;;;;15.60;9.23;;;1.50;99.90;;;;;;5117744;28;20019;-80
2023/11/30 04:16:47;;;;;;;16.47;9.17;;;1.50;99.90;;;;;;5117550;28;20105;-80
2023/11/30 04:19:12;;;;;;;14.77;8.70;;;1.50;99.90;;;;;;5117200;28;20126;-81
2023/11/30 04:21:39;;;;;;;17.43;9.30;;;1.40;99.90;;;;;;5118125;28;20028;-81
2023/11/30 04:24:05;;;;;;;15.07;8.63;;;1.40;99.90;;;;;;5118502;28;20019;-81
2023/11/30 04:26:31;;;;;;;14.87;8.20;;;1.40;99.90;;;;;;5099989;28;20016;-81
2023/11/30 04:28:56;;;;;;;17.10;9.60;;;1.40;99.90;;;;;;5117586;28;20045;-81
2023/11/30 04:31:22;;;;;;;17.50;9.80;;;1.40;99.90;;;;;;5118832;28;20016;-80
2023/11/30 04:33:48;;;;;;;18.23;9.97;;;1.40;99.90;;;;;;5119042;28;20035;-80
2023/11/30 04:36:13;;;;;;;18.00;10.00;;;1.30;99.90;;;;;;5118373;28;20058;-81
2023/11/30 04:38:39;;;;;;;16.80;9.47;;;1.30;99.90;;;;;;5117632;28;20483;-80
2023/11/30 04:41:05;;;;;;;18.07;9.00;;;1.30;99.90;;;;;;5098351;28;20020;-80
2023/11/30 04:43:30;;;;;;;18.40;9.90;;;1.30;99.90;;;;;;5098316;28;20496;-80
2023/11/30 04:45:56;;;;;;;16.20;9.37;;;1.30;99.90;;;;;;5116617;28;20375;-80
2023/11/30 04:48:22;;;;;;;18.10;9.87;;;1.30;99.90;;;;;;5097624;28;20387;-80
2023/11/30 04:50:47;;;;;;;18.43;9.87;;;1.30;99.90;;;;;;5116319;28;20132;-80
2023/11/30 04:53:13;;;;;;;17.33;9.87;;;1.20;99.90;;;;;;5116803;28;20051;-80
2023/11/30 04:55:38;;;;;;;19.27;11.03;;;1.20;99.90;;;;;;5116002;28;20127;-81
2023/11/30 04:58:04;;;;;;;20.07;10.37;;;1.30;99.90;;;;;;5116432;28;20022;-81
2023/11/30 05:00:30;;;;;;;17.90;10.13;;;1.30;99.90;;;;;;5115883;28;20020;-80
2023/11/30 05:02:55;;;;;;;17.80;10.20;;;1.30;99.90;;;;;;5097808;28;20540;-80
2023/11/30 05:05:22;;;;;;;18.57;9.97;;;1.30;99.90;;;;;;5116641;28;20030;-80
2023/11/30 05:07:48;;;;;;;19.10;10.73;;;1.30;99.90;;;;;;5098830;28;20561;-80
2023/11/30 05:10:14;;;;;;;19.40;10.80;;;1.30;99.90;;;;;;5116657;28;20022;-81
2023/11/30 05:12:40;;;;;;;19.23;11.17;;;1.30;99.90;;;;;;5098352;28;20114;-80
2023/11/30 05:15:06;;;;;;;20.37;11.03;;;1.30;99.90;;;;;;5098207;28;20030;-80
2023/11/30 05:17:32;;;;;;;21.90;10.63;;;1.30;99.90;;;;;;5115994;28;20046;-80
2023/11/30 05:19:58;;;;;;;18.70;11.33;;;1.30;99.90;;;;;;5098058;28;20019;-80
2023/11/30 05:22:24;;;;;;;19.03;9.90;;;1.30;99.90;;;;;;5097525;28;20601;-81
2023/11/30 05:24:50;;;;;;;18.53;10.43;;;1.30;99.90;;;;;;5097686;28;20020;-80
2023/11/30 05:27:16;;;;;;;20.43;10.67;;;1.30;99.90;;;;;;5116253;28;20030;-81
2023/11/30 05:29:42;;;;;;;19.17;11.03;;;1.30;99.90;;;;;;5097592;28;20027;-80
2023/11/30 05:32:07;;;;;;;18.87;11.00;;;1.20;99.90;;;;;;5115625;28;20027;-80
2023/11/30 05:34:35;;;;;;;23.73;11.50;;;1.20;99.90;;;;;;5115893;28;20383;-80
2023/11/30 05:37:03;;;;;;;22.40;12.50;;;1.20;99.90;;;;;;5096975;28;20478;-81
2023/11/30 05:39:30;;;;;;;20.20;11.10;;;1.20;99.90;;;;;;5096987;28;20106;-81
2023/11/30 05:41:55;;;;;;;20.47;11.03;;;1.20;99.90;;;;;;5114575;28;20023;-82
2023/11/30 05:44:21;;;;;;;19.83;10.97;;;1.20;99.90;;;;;;5114887;28;20428;-81
2023/11/30 05:46:48;;;;;;;20.87;11.77;;;1.30;99.90;;;;;;5114727;28;20471;-80
2023/11/30 05:49:13;;;;;;;20.30;10.90;;;1.20;99.90;;;;;;5096593;28;20020;-80
2023/11/30 05:51:40;;;;;;;19.60;11.30;;;1.20;99.90;;;;;;5114628;28;20026;-81
2023/11/30 05:54:05;;;;;;;21.87;12.60;;;1.20;99.90;;;;;;5114346;28;20111;-80
2023/11/30 05:56:31;;;;;;;19.20;10.93;;;1.10;99.90;;;;;;5096173;28;20131;-83
2023/11/30 05:58:57;;;;;;;22.10;10.53;;;1.10;99.90;;;;;;5114607;28;20028;-81
2023/11/30 06:01:23;;;;;;;22.97;12.17;;;1.10;99.90;;;;;;5114436;28;20018;-82
2023/11/30 06:03:49;;;;;;;20.73;11.37;;;1.10;99.90;;;;;;5096041;28;20039;-83
2023/11/30 06:06:14;;;;;;;20.60;10.87;;;1.10;99.90;;;;;;5114702;28;20024;-83
2023/11/30 06:08:40;;;;;;;19.87;11.53;;;1.20;99.90;;;;;;5114705;28;20024;-81
2023/11/30 06:11:06;;;;;;;21.37;11.33;;;1.10;99.90;;;;;;5095465;28;20046;-82
2023/11/30 06:13:32;;;;;;;23.20;12.37;;;1.10;99.90;;;;;;5095491;28;20395;-81
2023/11/30 06:15:57;;;;;;;24.03;12.60;;;1.10;99.90;;;;;;5095549;28;20311;-82
2023/11/30 06:18:23;;;;;;;24.63;12.80;;;1.10;99.90;;;;;;5113576;28;20368;-83
2023/11/30 06:20:49;;;;;;;21.53;12.27;;;1.20;99.90;;;;;;5114050;28;20043;-83
2023/11/30 06:23:15;;;;;;;23.20;12.90;;;1.20;99.90;;;;;;5095782;28;20494;-83
2023/11/30 06:25:42;;;;;;;23.73;12.70;;;1.30;99.90;;;;;;5095454;28;20024;-83
2023/11/30 06:28:08;;;;;;;23.40;12.50;;;1.40;99.90;;;;;;5094602;28;20416;-82
2023/11/30 06:30:34;;;;;;;23.40;12.37;;;1.40;99.90;;;;;;5113402;28;20016;-81
2023/11/30 06:33:00;;;;;;;24.50;12.00;;;1.50;99.90;;;;;;5094130;28;20478;-83
2023/11/30 06:35:25;;;;;;;23.70;12.63;;;1.50;99.90;;;;;;5113193;28;20449;-82
2023/11/30 06:37:51;;;;;;;21.97;12.57;;;1.50;99.90;;;;;;5095320;28;20380;-83
2023/11/30 06:40:17;;;;;;;21.07;11.83;;;1.60;99.90;;;;;;5095111;28;20012;-81
2023/11/30 06:42:43;;;;;;;21.57;12.17;;;1.60;99.90;;;;;;5113128;28;20031;-83
2023/11/30 06:45:09;;;;;;;21.80;12.67;;;1.60;99.90;;;;;;5095227;28;20030;-82
2023/11/30 06:47:34;;;;;;;26.23;13.10;;;1.70;99.90;;;;;;5095102;28;20487;-81
2023/11/30 06:50:00;;;;;;;22.90;12.93;;;1.70;99.90;;;;;;5113350;28;20102;-81
2023/11/30 06:52:26;;;;;;;22.60;11.97;;;1.80;99.90;;;;;;5095140;28;20544;-82
2023/11/30 06:54:51;;;;;;;20.70;12.20;;;1.80;99.90;;;;;;5113795;28;20030;-81
2023/11/30 06:57:17;;;;;;;22.77;12.47;;;1.90;99.90;;;;;;5095093;28;20026;-81
2023/11/30 06:59:43;;;;;;;22.00;12.37;;;1.80;99.90;;;;;;5095381;28;20016;-81
2023/11/30 07:02:09;;;;;;;20.37;11.77;;;1.90;99.90;;;;;;5113543;28;20020;-81
2023/11/30 07:04:35;;;;;;;26.67;13.67;;;1.90;99.90;;;;;;5114479;28;20464;-81
2023/11/30 07:07:01;;;;;;;23.43;13.20;;;1.90;99.90;;;;;;5095410;28;20026;-82
2023/11/30 07:09:28;;;;;;;32.53;16.47;;;1.90;99.90;;;;;;5095342;28;20051;-81
2023/11/30 07:11:53;;;;;;;26.10;14.73;;;2.00;99.90;;;;;;5112809;28;20517;-81
2023/11/30 07:14:19;;;;;;;24.73;13.97;;;2.00;99.90;;;;;;5094907;28;20020;-81
2023/11/30 07:16:45;;;;;;;24.03;14.87;;;2.00;99.90;;;;;;5112557;28;20051;-82
2023/11/30 07:19:11;;;;;;;26.70;14.53;;;2.00;99.90;;;;;;5101088;28;20023;-81
2023/11/30 07:21:37;;;;;;;24.57;14.67;;;2.10;99.90;;;;;;5113622;28;20035;-81
2023/11/30 07:24:03;;;;;;;25.63;13.87;;;2.10;99.90;;;;;;5098968;28;20020;-81
2023/11/30 07:26:29;;;;;;;23.90;14.17;;;2.10;99.90;;;;;;5098791;28;20020;-81
2023/11/30 07:28:55;;;;;;;24.73;13.73;;;2.10;99.90;;;;;;5117284;28;20102;-81
2023/11/30 07:31:21;;;;;;;29.37;14.97;;;2.20;99.90;;;;;;5099218;28;20450;-81
2023/11/30 07:33:47;;;;;;;24.67;14.03;;;2.20;99.90;;;;;;5117354;28;20027;-81
2023/11/30 07:36:13;;;;;;;27.37;15.23;;;2.20;99.90;;;;;;5117499;28;20057;-81
2023/11/30 07:38:39;;;;;;;26.97;15.97;;;2.20;99.90;;;;;;5099193;28;20065;-81
2023/11/30 07:41:06;;;;;;;26.30;14.80;;;2.20;99.90;;;;;;5091959;28;20536;-81
2023/11/30 07:43:32;;;;;;;27.57;15.87;;;2.30;99.90;;;;;;5086789;28;20153;-81
2023/11/30 07:45:58;;;;;;;24.07;13.53;;;2.30;99.90;;;;;;5079170;28;20110;-81
2023/11/30 07:48:23;;;;;;;26.10;14.53;;;2.30;99.90;;;;;;5079033;28;20028;-81
2023/11/30 07:50:50;;;;;;;28.67;15.13;;;2.30;99.90;;;;;;5097655;28;20027;-81
2023/11/30 07:53:17;;;;;;;23.23;13.90;;;2.30;99.90;;;;;;5099229;28;20048;-80
2023/11/30 07:55:43;;;;;;;25.77;15.47;;;2.30;99.90;;;;;;5097485;28;20020;-79
2023/11/30 07:58:09;;;;;;;24.33;13.77;;;2.30;99.90;;;;;;5096721;28;20024;-79
2023/11/30 08:00:34;;;;;;;26.40;14.53;;;2.30;99.90;;;;;;5078571;28;20024;-81
2023/11/30 08:03:01;;;;;;;29.27;15.73;;;2.30;99.90;;;;;;5096652;28;20028;-80
2023/11/30 08:05:27;;;;;;;23.50;13.57;;;2.30;99.90;;;;;;5078235;28;20091;-80
2023/11/30 08:07:52;;;;;;;28.77;16.03;;;2.30;99.90;;;;;;5078415;28;20067;-80
2023/11/30 08:10:18;;;;;;;25.90;15.47;;;2.30;99.90;;;;;;5095870;28;20040;-80
2023/11/30 08:12:45;;;;;;;23.47;14.03;;;2.30;99.90;;;;;;5096431;28;20081;-81
2023/11/30 08:15:10;;;;;;;26.23;14.40;;;2.30;99.90;;;;;;5078294;28;20020;-81
2023/11/30 08:17:36;;;;;;;23.50;14.80;;;2.40;99.90;;;;;;5096307;28;20541;-80
2023/11/30 08:20:02;;;;;;;22.93;13.67;;;2.40;99.90;;;;;;5077963;28;20036;-80
2023/11/30 08:22:27;;;;;;;21.83;12.93;;;2.40;99.90;;;;;;5077948;28;20084;-81
2023/11/30 08:24:53;;;;;;;23.73;13.53;;;2.40;99.90;;;;;;5096085;28;20531;-80
2023/11/30 08:27:22;;;;;;;27.27;14.93;;;2.40;99.90;;;;;;5078058;28;20387;-80
2023/11/30 08:29:49;;;;;;;23.63;13.50;;;2.40;99.90;;;;;;5077961;28;20028;-81
2023/11/30 08:32:15;;;;;;;25.07;14.57;;;2.40;99.90;;;;;;5096053;28;20028;-79
2023/11/30 08:34:40;;;;;;;22.83;14.07;;;2.40;99.90;;;;;;5077221;28;20412;-80
2023/11/30 08:37:06;;;;;;;25.90;14.50;;;2.40;99.90;;;;;;5078107;28;20031;-80
2023/11/30 08:39:32;;;;;;;21.77;13.40;;;2.40;99.90;;;;;;5095721;28;20056;-80
2023/11/30 08:41:57;;;;;;;24.63;13.40;;;2.50;99.90;;;;;;5077570;28;20056;-81
2023/11/30 08:44:23;;;;;;;26.93;13.63;;;2.50;99.90;;;;;;5095613;28;20081;-81
2023/11/30 08:46:49;;;;;;;26.23;14.23;;;2.50;99.90;;;;;;5077721;28;20387;-80
2023/11/30 08:49:15;;;;;;;26.63;13.97;;;2.60;99.90;;;;;;5095756;28;20048;-81
2023/11/30 08:51:42;;;;;;;21.70;12.17;;;2.60;99.90;;;;;;5095687;28;20054;-80
2023/11/30 08:54:07;;;;;;;22.57;12.90;;;2.60;99.90;;;;;;5096068;28;20138;-80
2023/11/30 08:56:33;;;;;;;22.10;12.97;;;2.70;99.90;;;;;;5095432;28;20028;-81
2023/11/30 08:58:58;;;;;;;25.93;14.63;;;2.70;99.90;;;;;;5095469;28;20031;-81
2023/11/30 09:01:24;;;;;;;22.27;12.63;;;2.70;99.90;;;;;;5095623;28;20036;-81
2023/11/30 09:03:52;;;;;;;21.13;12.80;;;2.80;99.90;;;;;;5077316;28;20024;-80
2023/11/30 09:06:18;;;;;;;20.43;12.17;;;2.80;99.90;;;;;;5095176;28;20027;-80
2023/11/30 09:08:44;;;;;;;22.07;13.73;;;2.90;99.90;;;;;;5095211;28;20024;-81
2023/11/30 09:11:10;;;;;;;19.47;12.43;;;2.90;99.90;;;;;;5076864;28;20028;-81
2023/11/30 09:13:35;;;;;;;23.13;13.13;;;3.00;99.90;;;;;;5077218;28;20024;-81
2023/11/30 09:16:02;;;;;;;21.63;13.03;;;3.00;99.90;;;;;;5077242;28;20448;-81
2023/11/30 09:18:28;;;;;;;21.80;12.60;;;3.10;99.90;;;;;;5095149;28;20044;-81
2023/11/30 09:20:53;;;;;;;20.23;12.13;;;3.10;99.90;;;;;;5076860;28;20051;-80
2023/11/30 09:23:19;;;;;;;22.57;13.80;;;3.10;99.90;;;;;;5094866;28;20067;-81
2023/11/30 09:25:45;;;;;;;21.63;12.53;;;3.20;99.90;;;;;;5076526;28;20024;-81
2023/11/30 09:28:10;;;;;;;22.27;13.27;;;3.20;99.90;;;;;;5076883;28;20075;-80
2023/11/30 09:30:36;;;;;;;22.43;13.20;;;3.10;99.90;;;;;;5095239;28;20410;-80
2023/11/30 09:33:03;;;;;;;21.33;12.50;;;3.10;99.90;;;;;;5076630;28;20020;-80
2023/11/30 09:35:28;;;;;;;23.13;12.93;;;3.10;99.90;;;;;;5094566;28;20107;-80
2023/11/30 09:37:54;;;;;;;22.13;12.87;;;3.20;99.90;;;;;;5094804;28;20475;-80
2023/11/30 09:40:20;;;;;;;26.17;13.63;;;3.20;99.90;;;;;;5076544;28;20022;-81
2023/11/30 09:42:46;;;;;;;22.60;13.03;;;3.20;99.90;;;;;;5094449;28;20031;-81
2023/11/30 09:45:13;;;;;;;21.63;12.83;;;3.30;99.90;;;;;;5093909;28;20032;-81
2023/11/30 09:47:39;;;;;;;21.70;12.27;;;3.30;99.90;;;;;;5094329;28;20028;-81
2023/11/30 09:50:05;;;;;;;21.27;13.00;;;3.30;99.90;;;;;;5113512;28;20088;-80
2023/11/30 09:52:31;;;;;;;25.63;14.73;;;3.30;99.90;;;;;;5096105;28;20490;-80
2023/11/30 09:54:58;;;;;;;24.43;14.40;;;3.40;99.90;;;;;;5096604;28;20099;-81
2023/11/30 09:57:23;;;;;;;22.60;13.13;;;3.40;99.90;;;;;;5114786;28;20022;-81
2023/11/30 09:59:52;;;;;;;27.13;15.00;;;3.40;99.90;;;;;;5096582;28;20382;-81
2023/11/30 10:02:18;;;;;;;24.47;14.93;;;3.50;99.90;;;;;;5114619;28;20031;-80
2023/11/30 10:04:45;;;;;;;27.53;15.60;;;3.50;99.90;;;;;;5114729;28;20019;-80
2023/11/30 10:07:11;;;;;;;31.57;17.27;;;3.60;99.90;;;;;;5114446;28;20047;-81
2023/11/30 10:09:37;;;;;;;29.07;15.97;;;3.60;99.90;;;;;;5114758;28;20105;-81
2023/11/30 10:12:04;;;;;;;26.60;15.37;;;3.60;99.90;;;;;;5114521;28;20032;-81
2023/11/30 10:14:30;;;;;;;28.20;16.43;;;3.70;99.90;;;;;;5096342;28;20042;-81
2023/11/30 10:16:55;;;;;;;28.27;16.47;;;3.70;99.90;;;;;;5114417;28;20498;-81
2023/11/30 10:19:21;;;;;;;28.13;16.17;;;3.70;99.90;;;;;;5096183;28;20016;-80
2023/11/30 10:21:47;;;;;;;29.57;17.07;;;3.80;99.90;;;;;;5095825;28;20034;-81
2023/11/30 10:24:13;;;;;;;32.23;18.00;;;3.80;99.90;;;;;;5113901;28;20107;-81
2023/11/30 10:26:42;;;;;;;31.43;16.30;;;3.80;99.90;;;;;;5114090;28;20099;-81
2023/11/30 10:29:11;;;;;;;28.63;16.63;;;3.90;99.90;;;;;;5114184;28;20080;-81
2023/11/30 10:31:39;;;;;;;28.70;16.33;;;3.90;99.90;;;;;;5114341;28;20016;-81
2023/11/30 10:34:10;;;;;;;30.57;17.37;;;3.90;99.90;;;;;;5096209;28;20019;-81
2023/11/30 10:36:37;;;;;;;31.87;18.80;;;3.90;99.90;;;;;;5113876;28;20068;-81
2023/11/30 10:39:16;;;;;;;29.90;16.87;;;4.00;99.90;;;;;;5115511;28;20051;-81
2023/11/30 10:41:53;;;;;;;30.57;17.47;;;4.00;99.90;;;;;;5095868;28;20497;-81
2023/11/30 10:44:26;;;;;;;27.53;15.87;;;4.00;99.90;;;;;;5095378;28;20027;-81
2023/11/30 10:46:54;;;;;;;28.58;16.80;;;4.00;99.90;;;;;;5095697;28;20020;-81
2023/11/30 10:49:22;;;;;;;31.33;17.10;;;4.00;99.90;;;;;;5113624;28;20395;-81
2023/11/30 10:51:54;;;;;;;30.50;18.03;;;4.00;99.90;;;;;;5113907;28;20027;-81
2023/11/30 10:54:25;;;;;;;32.77;18.10;;;4.00;99.90;;;;;;5095576;28;20029;-81
2023/11/30 10:56:51;;;;;;;31.67;18.60;;;3.90;99.90;;;;;;5095003;28;20019;-80
2023/11/30 10:59:16;;;;;;;31.60;18.37;;;4.00;99.90;;;;;;5113947;28;20137;-81
2023/11/30 11:01:48;;;;;;;31.13;18.53;;;4.00;99.90;;;;;;5095585;28;20024;-81
2023/11/30 11:04:15;;;;;;;35.83;20.13;;;4.10;99.90;;;;;;5113553;28;20426;-81
2023/11/30 11:06:41;;;;;;;33.23;20.93;;;4.20;99.90;;;;;;5095339;28;20068;-81
2023/11/30 11:09:09;;;;;;;36.23;20.43;;;4.30;99.90;;;;;;5113393;28;20601;-81
2023/11/30 11:11:39;;;;;;;40.53;21.90;;;4.30;99.90;;;;;;5095409;28;20019;-81
2023/11/30 11:14:06;;;;;;;37.77;21.20;;;4.40;99.90;;;;;;5095566;28;20069;-80
2023/11/30 11:16:42;;;;;;;42.20;23.17;;;4.50;99.90;;;;;;5113568;28;20080;-81
2023/11/30 11:19:09;;;;;;;37.03;21.33;;;4.60;99.90;;;;;;5094875;28;20115;-81
2023/11/30 11:21:39;;;;;;;38.00;21.77;;;4.60;99.90;;;;;;5095332;28;20020;-80
2023/11/30 11:24:06;;;;;;;36.70;21.53;;;4.70;99.90;;;;;;5095358;28;20031;-81
2023/11/30 11:26:47;;;;;;;42.20;22.53;;;4.70;99.90;;;;;;5095173;28;20406;-81
2023/11/30 11:29:16;;;;;;;39.67;23.23;;;4.80;99.90;;;;;;5095093;28;20065;-81
2023/11/30 11:31:43;;;;;;;39.10;22.73;;;4.90;99.90;;;;;;5113617;28;20016;-81
2023/11/30 11:34:09;;;;;;;42.47;23.77;;;4.70;99.90;;;;;;5112907;28;20023;-79
2023/11/30 11:36:38;;;;;;;43.33;23.93;;;4.80;99.90;;;;;;5095033;28;20024;-80
2023/11/30 11:39:05;;;;;;;41.57;23.37;;;4.70;99.90;;;;;;5113468;28;20046;-81
2023/11/30 11:41:31;;;;;;;38.90;22.07;;;4.70;99.90;;;;;;5113230;28;20023;-81
2023/11/30 11:43:56;;;;;;;40.33;22.63;;;4.70;99.90;;;;;;5113419;28;20386;-81
2023/11/30 11:46:22;;;;;;;40.57;22.93;;;4.60;99.90;;;;;;5113264;28;20035;-81
2023/11/30 11:48:48;;;;;;;42.80;22.43;;;4.60;99.90;;;;;;5094507;28;20144;-80
2023/11/30 11:51:14;;;;;;;46.37;23.67;;;4.70;99.90;;;;;;5094972;28;20020;-81
2023/11/30 11:53:43;;;;;;;39.83;22.70;;;4.60;99.90;;;;;;5094674;28;20044;-80
2023/11/30 11:56:10;;;;;;;39.80;22.07;;;4.60;99.90;;;;;;5094933;28;20023;-80
2023/11/30 11:58:36;;;;;;;44.87;23.90;;;4.60;99.90;;;;;;5113429;28;20356;-81
2023/11/30 12:01:02;;;;;;;40.67;22.90;;;4.60;99.90;;;;;;5095162;28;20020;-80
2023/11/30 12:03:28;;;;;;;41.23;22.70;;;4.60;99.90;;;;;;5094624;28;20200;-80
2023/11/30 12:05:54;;;;;;;40.53;22.87;;;4.60;99.90;;;;;;5094621;28;20074;-80
2023/11/30 12:08:30;;;;;;;43.70;23.37;;;4.60;99.90;;;;;;5112757;28;20028;-80
2023/11/30 12:10:56;;;;;;;42.37;23.90;;;4.60;99.90;;;;;;5116898;28;20027;-80
2023/11/30 12:13:24;;;;;;;41.97;25.13;;;4.60;99.90;;;;;;5116764;28;20030;-80
2023/11/30 12:15:49;;;;;;;40.77;23.63;;;4.60;99.90;;;;;;5098088;28;20030;-80
2023/11/30 12:18:15;;;;;;;44.77;24.17;;;4.50;99.90;;;;;;5116549;28;20442;-80
2023/11/30 12:20:42;;;;;;;45.40;24.03;;;4.50;99.90;;;;;;5098648;28;20019;-80
2023/11/30 12:23:08;;;;;;;44.73;24.23;;;4.60;99.90;;;;;;5116439;28;20032;-80
2023/11/30 12:25:34;;;;;;;42.57;23.27;;;4.60;99.90;;;;;;5116767;28;20031;-80
2023/11/30 12:27:59;;;;;;;42.63;23.87;;;4.60;99.90;;;;;;5098691;28;20387;-80
2023/11/30 12:30:25;;;;;;;48.50;25.63;;;4.60;99.90;;;;;;5098083;28;20012;-80
2023/11/30 12:32:51;;;;;;;45.97;25.53;;;4.60;99.90;;;;;;5116310;28;20036;-80
2023/11/30 12:35:16;;;;;;;49.80;25.37;;;4.70;99.90;;;;;;5116346;28;20023;-81
2023/11/30 12:37:42;;;;;;;46.60;24.43;;;4.70;99.90;;;;;;5098325;28;20019;-81
2023/11/30 12:40:13;;;;;;;45.03;25.57;;;4.70;99.90;;;;;;5097985;28;20012;-81
2023/11/30 12:42:39;;;;;;;41.10;22.93;;;4.70;99.90;;;;;;5097933;28;20024;-81
2023/11/30 12:45:05;;;;;;;42.67;23.23;;;4.70;99.90;;;;;;5116109;28;20015;-80
2023/11/30 12:47:31;;;;;;;46.10;24.13;;;4.70;99.90;;;;;;5097606;28;20053;-81
2023/11/30 12:49:57;;;;;;;43.80;24.97;;;4.80;99.90;;;;;;5115782;28;20015;-80